首页
METAR-TAF:

METAR-TAF

机场 :

卡罗维发利, 捷克共和国

纬度: 50-12N, 经度: 012-55E, 海拔: 603米

当前天气观测

该预报发布于54分钟前的04:00 UTC
风速4节,风向南转南东,在东转东南南转西南之间变化
温度 1°C
湿度 86%
气压 1014 hPa
能见度10公里或以上
散云层高于2300英尺

METAR: LKKV 190400Z 16004KT 120V200 9999 SCT023 01/M01 Q1014

时间: 05:54 (04:54 UTC)

预报

该预报发布于5小时和54分钟前的23:00 UTC
预报有效从19日的 00点(UTC)到 20日的 06点(UTC)
风速4节,风向
能见度10公里或以上
1500米以下无云,无积雨云
成为
从 19日的 04点(UTC)到 19日的 06点(UTC)
风速2节,风向多变
几率 30% :
短暂存在
从 19日的 04点(UTC)到 19日的 08点(UTC)
能見度: 2500
散云层高于200英尺
轻雾
短暂存在
从 19日的 08点(UTC)到 19日的 16点(UTC)
风速4节,风向东北
成为
从 19日的 18点(UTC)到 19日的 21点(UTC)
能見度: 2000
散云层高于200英尺
浅雾
短暂存在
从 20日的 00点(UTC)到 20日的 06点(UTC)
能見度: 0800
多云层高于200英尺
冻雾
几率 30% :
短暂存在
从 20日的 02点(UTC)到 20日的 06点(UTC)
能見度: 0300
层高于100英尺
冻雾

TAF: LKKV 182300Z 1900/2006 18004KT CAVOK BECMG 1904/1906 VRB02KT PROB30 TEMPO 1904/1908 2500 BR SCT002 TEMPO 1908/1916 05004KT BECMG 1918/1921 2000 MIFG SCT002 TEMPO 2000/2006 0800 FZFG BKN002 PROB30 TEMPO 2002/2006 0300 FZFG VV001

超过4000个机场的气象观测和天气预报(METAR&TAF报告)。

可查询的气象台以黄色和红色小点在地图上表示。

将鼠标移到小点上方,可查看气象台名称。

然后点击查看天气观测和预报。

如需切换地图:点击带黑十字的绿色按钮放大地图;点击带横线的绿色按钮缩小地图;或者点击绿色箭头查看邻近地区的地图。


METAR-TAF: